sensor_id;sensor_type;location;lat;lon;timestamp;P1;durP1;ratioP1;P2;durP2;ratioP2
27778;SDS011;30234;48.090;11.464;2022-10-16T00:01:46;2.25;;;0.60;;
27778;SDS011;30234;48.090;11.464;2022-10-16T00:05:47;3.72;;;0.80;;
27778;SDS011;30234;48.090;11.464;2022-10-16T00:09:47;1.90;;;0.75;;
27778;SDS011;30234;48.090;11.464;2022-10-16T00:13:49;1.42;;;0.68;;
27778;SDS011;30234;48.090;11.464;2022-10-16T00:17:52;1.00;;;0.80;;
27778;SDS011;30234;48.090;11.464;2022-10-16T00:21:52;1.45;;;1.02;;
27778;SDS011;30234;48.090;11.464;2022-10-16T00:26:00;4.40;;;0.93;;
27778;SDS011;30234;48.090;11.464;2022-10-16T00:30:04;0.77;;;0.55;;
27778;SDS011;30234;48.090;11.464;2022-10-16T00:34:08;4.22;;;0.60;;
27778;SDS011;30234;48.090;11.464;2022-10-16T00:38:09;3.28;;;0.52;;
27778;SDS011;30234;48.090;11.464;2022-10-16T00:42:17;1.05;;;0.63;;
27778;SDS011;30234;48.090;11.464;2022-10-16T00:46:29;0.60;;;0.60;;
27778;SDS011;30234;48.090;11.464;2022-10-16T00:50:38;1.35;;;0.80;;
27778;SDS011;30234;48.090;11.464;2022-10-16T00:54:41;0.50;;;0.40;;
27778;SDS011;30234;48.090;11.464;2022-10-16T00:58:42;2.33;;;0.80;;
27778;SDS011;30234;48.090;11.464;2022-10-16T01:02:43;0.73;;;0.60;;
27778;SDS011;30234;48.090;11.464;2022-10-16T01:15:03;2.10;;;0.63;;
27778;SDS011;30234;48.090;11.464;2022-10-16T01:32:56;0.77;;;0.77;;
27778;SDS011;30234;48.090;11.464;2022-10-16T01:37:02;1.08;;;0.70;;
27778;SDS011;30234;48.090;11.464;2022-10-16T01:41:16;3.25;;;0.70;;
27778;SDS011;30234;48.090;11.464;2022-10-16T01:45:25;2.35;;;0.50;;
27778;SDS011;30234;48.090;11.464;2022-10-16T01:49:29;0.93;;;0.82;;
27778;SDS011;30234;48.090;11.464;2022-10-16T01:53:34;3.72;;;0.73;;
27778;SDS011;30234;48.090;11.464;2022-10-16T01:57:36;1.05;;;0.80;;
27778;SDS011;30234;48.090;11.464;2022-10-16T02:01:42;5.63;;;2.13;;
27778;SDS011;30234;48.090;11.464;2022-10-16T02:05:54;1.35;;;0.85;;
27778;SDS011;30234;48.090;11.464;2022-10-16T02:09:56;0.80;;;0.60;;
27778;SDS011;30234;48.090;11.464;2022-10-16T02:13:59;1.58;;;0.70;;
27778;SDS011;30234;48.090;11.464;2022-10-16T02:18:06;1.00;;;0.63;;
27778;SDS011;30234;48.090;11.464;2022-10-16T02:22:08;6.38;;;0.90;;
27778;SDS011;30234;48.090;11.464;2022-10-16T02:26:17;2.70;;;0.80;;
27778;SDS011;30234;48.090;11.464;2022-10-16T02:30:42;1.05;;;0.80;;
27778;SDS011;30234;48.090;11.464;2022-10-16T02:35:05;2.22;;;0.90;;
27778;SDS011;30234;48.090;11.464;2022-10-16T02:39:07;1.10;;;0.95;;
27778;SDS011;30234;48.090;11.464;2022-10-16T02:43:09;2.03;;;0.52;;
27778;SDS011;30234;48.090;11.464;2022-10-16T02:47:10;1.98;;;0.98;;
27778;SDS011;30234;48.090;11.464;2022-10-16T02:51:12;4.05;;;0.80;;
27778;SDS011;30234;48.090;11.464;2022-10-16T02:55:13;2.05;;;0.70;;
27778;SDS011;30234;48.090;11.464;2022-10-16T02:59:14;1.30;;;0.90;;
27778;SDS011;30234;48.090;11.464;2022-10-16T03:03:15;2.15;;;1.02;;
27778;SDS011;30234;48.090;11.464;2022-10-16T03:07:16;1.63;;;0.52;;
27778;SDS011;30234;48.090;11.464;2022-10-16T03:11:17;2.05;;;0.95;;
27778;SDS011;30234;48.090;11.464;2022-10-16T03:15:18;1.77;;;0.82;;
27778;SDS011;30234;48.090;11.464;2022-10-16T03:19:19;3.55;;;0.77;;
27778;SDS011;30234;48.090;11.464;2022-10-16T03:23:19;0.52;;;0.50;;
27778;SDS011;30234;48.090;11.464;2022-10-16T03:27:20;5.25;;;0.77;;
27778;SDS011;30234;48.090;11.464;2022-10-16T03:31:21;0.77;;;0.75;;
27778;SDS011;30234;48.090;11.464;2022-10-16T03:35:23;0.73;;;0.70;;
27778;SDS011;30234;48.090;11.464;2022-10-16T03:39:24;1.50;;;0.68;;
27778;SDS011;30234;48.090;11.464;2022-10-16T03:43:25;0.95;;;0.75;;
27778;SDS011;30234;48.090;11.464;2022-10-16T03:47:26;1.42;;;0.68;;
27778;SDS011;30234;48.090;11.464;2022-10-16T03:51:26;1.75;;;0.80;;
27778;SDS011;30234;48.090;11.464;2022-10-16T03:55:27;3.85;;;0.88;;
27778;SDS011;30234;48.090;11.464;2022-10-16T03:59:28;0.77;;;0.70;;
27778;SDS011;30234;48.090;11.464;2022-10-16T04:03:29;1.35;;;0.82;;
27778;SDS011;30234;48.090;11.464;2022-10-16T04:07:30;3.95;;;0.90;;
27778;SDS011;30234;48.090;11.464;2022-10-16T04:11:30;1.50;;;0.90;;
27778;SDS011;30234;48.090;11.464;2022-10-16T04:15:31;0.60;;;0.60;;
27778;SDS011;30234;48.090;11.464;2022-10-16T04:19:32;5.07;;;1.10;;
27778;SDS011;30234;48.090;11.464;2022-10-16T04:23:33;0.85;;;0.85;;
27778;SDS011;30234;48.090;11.464;2022-10-16T04:27:33;0.90;;;0.80;;
27778;SDS011;30234;48.090;11.464;2022-10-16T04:31:34;0.80;;;0.70;;
27778;SDS011;30234;48.090;11.464;2022-10-16T04:35:35;5.50;;;0.70;;
27778;SDS011;30234;48.090;11.464;2022-10-16T04:39:37;0.95;;;0.90;;
27778;SDS011;30234;48.090;11.464;2022-10-16T04:43:38;3.97;;;0.82;;
27778;SDS011;30234;48.090;11.464;2022-10-16T04:47:38;1.80;;;0.82;;
27778;SDS011;30234;48.090;11.464;2022-10-16T04:51:39;2.45;;;0.80;;
27778;SDS011;30234;48.090;11.464;2022-10-16T04:55:40;2.05;;;0.95;;
27778;SDS011;30234;48.090;11.464;2022-10-16T04:59:41;3.30;;;0.82;;
27778;SDS011;30234;48.090;11.464;2022-10-16T05:03:42;1.67;;;1.02;;
27778;SDS011;30234;48.090;11.464;2022-10-16T05:07:43;3.42;;;0.95;;
27778;SDS011;30234;48.090;11.464;2022-10-16T05:11:44;1.15;;;1.05;;
27778;SDS011;30234;48.090;11.464;2022-10-16T05:15:48;1.20;;;1.02;;
27778;SDS011;30234;48.090;11.464;2022-10-16T05:19:49;2.55;;;0.90;;
27778;SDS011;30234;48.090;11.464;2022-10-16T05:23:49;1.10;;;1.00;;
27778;SDS011;30234;48.090;11.464;2022-10-16T05:27:50;2.55;;;0.90;;
27778;SDS011;30234;48.090;11.464;2022-10-16T05:31:52;1.10;;;0.90;;
27778;SDS011;30234;48.090;11.464;2022-10-16T05:35:53;0.98;;;0.80;;
27778;SDS011;30234;48.090;11.464;2022-10-16T05:39:54;2.55;;;0.80;;
27778;SDS011;30234;48.090;11.464;2022-10-16T05:43:54;5.20;;;0.95;;
27778;SDS011;30234;48.090;11.464;2022-10-16T05:47:55;1.42;;;0.98;;
27778;SDS011;30234;48.090;11.464;2022-10-16T05:51:56;1.45;;;1.02;;
27778;SDS011;30234;48.090;11.464;2022-10-16T05:55:57;1.92;;;1.33;;
27778;SDS011;30234;48.090;11.464;2022-10-16T05:59:58;4.40;;;1.10;;
27778;SDS011;30234;48.090;11.464;2022-10-16T06:03:59;2.58;;;0.80;;
27778;SDS011;30234;48.090;11.464;2022-10-16T06:08:00;1.42;;;1.05;;
27778;SDS011;30234;48.090;11.464;2022-10-16T06:12:01;2.03;;;1.23;;
27778;SDS011;30234;48.090;11.464;2022-10-16T06:16:02;1.02;;;0.80;;
27778;SDS011;30234;48.090;11.464;2022-10-16T06:20:04;1.60;;;1.30;;
27778;SDS011;30234;48.090;11.464;2022-10-16T06:24:05;3.80;;;0.98;;
27778;SDS011;30234;48.090;11.464;2022-10-16T06:28:06;2.88;;;0.88;;
27778;SDS011;30234;48.090;11.464;2022-10-16T06:32:06;2.67;;;1.35;;
27778;SDS011;30234;48.090;11.464;2022-10-16T06:36:08;1.48;;;1.15;;
27778;SDS011;30234;48.090;11.464;2022-10-16T06:40:14;1.75;;;1.10;;
27778;SDS011;30234;48.090;11.464;2022-10-16T06:44:15;1.27;;;1.15;;
27778;SDS011;30234;48.090;11.464;2022-10-16T06:48:16;1.52;;;1.08;;
27778;SDS011;30234;48.090;11.464;2022-10-16T06:52:17;6.95;;;1.17;;
27778;SDS011;30234;48.090;11.464;2022-10-16T06:56:21;3.88;;;1.27;;
27778;SDS011;30234;48.090;11.464;2022-10-16T07:00:24;2.25;;;1.13;;
27778;SDS011;30234;48.090;11.464;2022-10-16T07:04:25;1.15;;;0.80;;
27778;SDS011;30234;48.090;11.464;2022-10-16T07:08:26;1.27;;;1.02;;
27778;SDS011;30234;48.090;11.464;2022-10-16T07:12:26;2.55;;;0.90;;
27778;SDS011;30234;48.090;11.464;2022-10-16T07:16:28;0.93;;;0.93;;
27778;SDS011;30234;48.090;11.464;2022-10-16T07:20:31;1.23;;;1.00;;
27778;SDS011;30234;48.090;11.464;2022-10-16T07:24:32;1.05;;;0.98;;
27778;SDS011;30234;48.090;11.464;2022-10-16T07:28:33;1.63;;;1.02;;
27778;SDS011;30234;48.090;11.464;2022-10-16T07:32:34;2.55;;;1.05;;
27778;SDS011;30234;48.090;11.464;2022-10-16T07:36:35;1.75;;;1.40;;
27778;SDS011;30234;48.090;11.464;2022-10-16T07:40:36;1.70;;;1.30;;
27778;SDS011;30234;48.090;11.464;2022-10-16T07:44:37;2.00;;;1.33;;
27778;SDS011;30234;48.090;11.464;2022-10-16T07:48:37;2.47;;;1.30;;
27778;SDS011;30234;48.090;11.464;2022-10-16T07:52:38;2.42;;;1.00;;
27778;SDS011;30234;48.090;11.464;2022-10-16T07:56:39;1.92;;;1.30;;
27778;SDS011;30234;48.090;11.464;2022-10-16T08:00:40;3.63;;;1.20;;
27778;SDS011;30234;48.090;11.464;2022-10-16T08:04:41;1.27;;;1.13;;
27778;SDS011;30234;48.090;11.464;2022-10-16T08:08:43;1.55;;;1.35;;
27778;SDS011;30234;48.090;11.464;2022-10-16T08:12:43;1.30;;;1.20;;
27778;SDS011;30234;48.090;11.464;2022-10-16T08:16:45;1.67;;;1.50;;
27778;SDS011;30234;48.090;11.464;2022-10-16T08:20:46;1.60;;;1.50;;
27778;SDS011;30234;48.090;11.464;2022-10-16T08:24:47;1.23;;;1.13;;
27778;SDS011;30234;48.090;11.464;2022-10-16T08:28:51;1.38;;;1.27;;
27778;SDS011;30234;48.090;11.464;2022-10-16T08:32:51;1.52;;;1.42;;
27778;SDS011;30234;48.090;11.464;2022-10-16T08:36:53;2.58;;;1.33;;
27778;SDS011;30234;48.090;11.464;2022-10-16T08:40:57;2.45;;;1.73;;
27778;SDS011;30234;48.090;11.464;2022-10-16T08:50:24;1.73;;;1.60;;
27778;SDS011;30234;48.090;11.464;2022-10-16T08:54:32;2.05;;;1.23;;
27778;SDS011;30234;48.090;11.464;2022-10-16T08:58:48;1.25;;;1.15;;
27778;SDS011;30234;48.090;11.464;2022-10-16T09:02:56;1.75;;;1.10;;
27778;SDS011;30234;48.090;11.464;2022-10-16T09:07:20;1.48;;;1.30;;
27778;SDS011;30234;48.090;11.464;2022-10-16T09:16:13;1.55;;;1.30;;
27778;SDS011;30234;48.090;11.464;2022-10-16T09:20:42;1.80;;;1.45;;
27778;SDS011;30234;48.090;11.464;2022-10-16T09:25:20;1.63;;;1.40;;
27778;SDS011;30234;48.090;11.464;2022-10-16T09:29:23;2.03;;;1.30;;
27778;SDS011;30234;48.090;11.464;2022-10-16T09:33:25;2.50;;;1.70;;
27778;SDS011;30234;48.090;11.464;2022-10-16T09:37:34;2.80;;;1.50;;
27778;SDS011;30234;48.090;11.464;2022-10-16T09:41:36;4.75;;;1.83;;
27778;SDS011;30234;48.090;11.464;2022-10-16T09:45:39;1.15;;;1.05;;
27778;SDS011;30234;48.090;11.464;2022-10-16T09:49:50;1.35;;;1.25;;
27778;SDS011;30234;48.090;11.464;2022-10-16T09:53:58;1.40;;;1.30;;
27778;SDS011;30234;48.090;11.464;2022-10-16T09:58:13;1.70;;;1.30;;
27778;SDS011;30234;48.090;11.464;2022-10-16T10:02:14;2.88;;;1.27;;
27778;SDS011;30234;48.090;11.464;2022-10-16T10:10:29;1.70;;;1.30;;
27778;SDS011;30234;48.090;11.464;2022-10-16T10:14:37;2.67;;;1.23;;
27778;SDS011;30234;48.090;11.464;2022-10-16T10:18:41;1.10;;;1.00;;
27778;SDS011;30234;48.090;11.464;2022-10-16T10:22:42;2.00;;;1.10;;
27778;SDS011;30234;48.090;11.464;2022-10-16T10:26:48;2.08;;;1.23;;
27778;SDS011;30234;48.090;11.464;2022-10-16T10:31:14;1.17;;;1.02;;
27778;SDS011;30234;48.090;11.464;2022-10-16T10:35:26;1.50;;;1.00;;
27778;SDS011;30234;48.090;11.464;2022-10-16T10:39:57;1.30;;;1.20;;
27778;SDS011;30234;48.090;11.464;2022-10-16T10:49:07;2.22;;;1.75;;
27778;SDS011;30234;48.090;11.464;2022-10-16T10:58:34;1.02;;;1.02;;
27778;SDS011;30234;48.090;11.464;2022-10-16T11:07:24;1.02;;;0.80;;
27778;SDS011;30234;48.090;11.464;2022-10-16T11:11:33;0.73;;;0.73;;
27778;SDS011;30234;48.090;11.464;2022-10-16T11:15:41;1.10;;;1.00;;
27778;SDS011;30234;48.090;11.464;2022-10-16T11:24:17;0.98;;;0.90;;
27778;SDS011;30234;48.090;11.464;2022-10-16T11:28:45;0.80;;;0.80;;
27778;SDS011;30234;48.090;11.464;2022-10-16T11:33:17;0.85;;;0.68;;
27778;SDS011;30234;48.090;11.464;2022-10-16T11:37:32;1.58;;;0.85;;
27778;SDS011;30234;48.090;11.464;2022-10-16T11:41:43;0.40;;;0.40;;
27778;SDS011;30234;48.090;11.464;2022-10-16T11:45:49;0.60;;;0.60;;
27778;SDS011;30234;48.090;11.464;2022-10-16T11:50:00;1.15;;;0.52;;
27778;SDS011;30234;48.090;11.464;2022-10-16T11:58:45;0.73;;;0.70;;
27778;SDS011;30234;48.090;11.464;2022-10-16T12:03:21;0.50;;;0.50;;
27778;SDS011;30234;48.090;11.464;2022-10-16T12:07:31;2.60;;;0.63;;
27778;SDS011;30234;48.090;11.464;2022-10-16T12:11:37;3.78;;;0.82;;
27778;SDS011;30234;48.090;11.464;2022-10-16T12:15:39;0.60;;;0.60;;
27778;SDS011;30234;48.090;11.464;2022-10-16T12:19:39;0.60;;;0.60;;
27778;SDS011;30234;48.090;11.464;2022-10-16T12:23:50;2.40;;;0.80;;
27778;SDS011;30234;48.090;11.464;2022-10-16T12:28:03;1.05;;;0.90;;
27778;SDS011;30234;48.090;11.464;2022-10-16T12:32:29;1.50;;;0.90;;
27778;SDS011;30234;48.090;11.464;2022-10-16T12:36:41;0.75;;;0.70;;
27778;SDS011;30234;48.090;11.464;2022-10-16T12:40:42;1.50;;;0.77;;
27778;SDS011;30234;48.090;11.464;2022-10-16T12:44:44;0.70;;;0.70;;
27778;SDS011;30234;48.090;11.464;2022-10-16T12:48:46;0.70;;;0.70;;
27778;SDS011;30234;48.090;11.464;2022-10-16T12:52:48;0.63;;;0.63;;
27778;SDS011;30234;48.090;11.464;2022-10-16T12:57:04;0.77;;;0.60;;
27778;SDS011;30234;48.090;11.464;2022-10-16T13:01:42;1.50;;;0.60;;
27778;SDS011;30234;48.090;11.464;2022-10-16T13:15:41;0.52;;;0.52;;
27778;SDS011;30234;48.090;11.464;2022-10-16T13:20:20;1.98;;;0.50;;
27778;SDS011;30234;48.090;11.464;2022-10-16T13:29:15;0.68;;;0.50;;
27778;SDS011;30234;48.090;11.464;2022-10-16T13:33:21;0.82;;;0.38;;
27778;SDS011;30234;48.090;11.464;2022-10-16T13:37:34;0.50;;;0.50;;
27778;SDS011;30234;48.090;11.464;2022-10-16T13:41:35;0.65;;;0.60;;
27778;SDS011;30234;48.090;11.464;2022-10-16T13:45:36;0.40;;;0.40;;
27778;SDS011;30234;48.090;11.464;2022-10-16T13:49:37;0.47;;;0.47;;
27778;SDS011;30234;48.090;11.464;2022-10-16T13:53:38;0.47;;;0.47;;
27778;SDS011;30234;48.090;11.464;2022-10-16T13:57:40;0.95;;;0.70;;
27778;SDS011;30234;48.090;11.464;2022-10-16T14:01:42;0.68;;;0.55;;
27778;SDS011;30234;48.090;11.464;2022-10-16T14:05:48;0.40;;;0.40;;
27778;SDS011;30234;48.090;11.464;2022-10-16T14:09:55;0.70;;;0.70;;
27778;SDS011;30234;48.090;11.464;2022-10-16T14:14:01;0.80;;;0.50;;
27778;SDS011;30234;48.090;11.464;2022-10-16T14:18:02;0.77;;;0.77;;
27778;SDS011;30234;48.090;11.464;2022-10-16T14:22:04;1.08;;;0.68;;
27778;SDS011;30234;48.090;11.464;2022-10-16T14:26:41;0.50;;;0.50;;
27778;SDS011;30234;48.090;11.464;2022-10-16T14:30:49;0.65;;;0.43;;
27778;SDS011;30234;48.090;11.464;2022-10-16T14:34:59;1.95;;;0.40;;
27778;SDS011;30234;48.090;11.464;2022-10-16T14:39:00;0.50;;;0.50;;
27778;SDS011;30234;48.090;11.464;2022-10-16T14:43:03;0.93;;;0.70;;
27778;SDS011;30234;48.090;11.464;2022-10-16T14:47:06;1.58;;;0.50;;
27778;SDS011;30234;48.090;11.464;2022-10-16T14:51:13;0.40;;;0.40;;
27778;SDS011;30234;48.090;11.464;2022-10-16T14:55:18;0.73;;;0.40;;
27778;SDS011;30234;48.090;11.464;2022-10-16T15:03:41;0.30;;;0.30;;
27778;SDS011;30234;48.090;11.464;2022-10-16T15:07:41;0.47;;;0.40;;
27778;SDS011;30234;48.090;11.464;2022-10-16T15:11:43;2.25;;;0.70;;
27778;SDS011;30234;48.090;11.464;2022-10-16T15:15:44;4.72;;;0.70;;
27778;SDS011;30234;48.090;11.464;2022-10-16T15:19:51;0.60;;;0.50;;
27778;SDS011;30234;48.090;11.464;2022-10-16T15:23:52;1.23;;;0.80;;
27778;SDS011;30234;48.090;11.464;2022-10-16T15:27:53;1.05;;;0.80;;
27778;SDS011;30234;48.090;11.464;2022-10-16T15:31:53;1.63;;;0.73;;
27778;SDS011;30234;48.090;11.464;2022-10-16T15:35:54;2.50;;;0.85;;
27778;SDS011;30234;48.090;11.464;2022-10-16T15:39:55;1.73;;;1.27;;
27778;SDS011;30234;48.090;11.464;2022-10-16T15:43:56;0.55;;;0.55;;
27778;SDS011;30234;48.090;11.464;2022-10-16T15:47:56;1.55;;;0.60;;
27778;SDS011;30234;48.090;11.464;2022-10-16T15:51:57;2.40;;;0.82;;
27778;SDS011;30234;48.090;11.464;2022-10-16T15:56:00;3.25;;;1.27;;
27778;SDS011;30234;48.090;11.464;2022-10-16T16:00:06;3.28;;;1.00;;
27778;SDS011;30234;48.090;11.464;2022-10-16T16:04:09;1.45;;;0.65;;
27778;SDS011;30234;48.090;11.464;2022-10-16T16:08:11;0.57;;;0.50;;
27778;SDS011;30234;48.090;11.464;2022-10-16T16:12:12;3.15;;;0.82;;
27778;SDS011;30234;48.090;11.464;2022-10-16T16:16:14;0.80;;;0.70;;
27778;SDS011;30234;48.090;11.464;2022-10-16T16:20:16;0.95;;;0.50;;
27778;SDS011;30234;48.090;11.464;2022-10-16T16:24:17;4.50;;;0.90;;
27778;SDS011;30234;48.090;11.464;2022-10-16T16:28:18;9.32;;;1.10;;
27778;SDS011;30234;48.090;11.464;2022-10-16T16:32:19;2.83;;;1.40;;
27778;SDS011;30234;48.090;11.464;2022-10-16T16:36:19;4.03;;;1.10;;
27778;SDS011;30234;48.090;11.464;2022-10-16T16:40:20;2.17;;;0.95;;
27778;SDS011;30234;48.090;11.464;2022-10-16T16:44:21;4.63;;;1.17;;
27778;SDS011;30234;48.090;11.464;2022-10-16T16:48:23;2.28;;;1.05;;
27778;SDS011;30234;48.090;11.464;2022-10-16T16:52:24;4.20;;;0.90;;
27778;SDS011;30234;48.090;11.464;2022-10-16T16:56:25;1.67;;;1.23;;
27778;SDS011;30234;48.090;11.464;2022-10-16T17:00:26;1.80;;;0.90;;
27778;SDS011;30234;48.090;11.464;2022-10-16T17:04:27;2.50;;;0.82;;
27778;SDS011;30234;48.090;11.464;2022-10-16T17:08:28;3.17;;;1.20;;
27778;SDS011;30234;48.090;11.464;2022-10-16T17:12:29;1.02;;;0.90;;
27778;SDS011;30234;48.090;11.464;2022-10-16T17:16:31;3.53;;;0.98;;
27778;SDS011;30234;48.090;11.464;2022-10-16T17:20:35;6.03;;;1.23;;
27778;SDS011;30234;48.090;11.464;2022-10-16T17:24:36;3.97;;;1.30;;
27778;SDS011;30234;48.090;11.464;2022-10-16T17:28:37;1.60;;;0.98;;
27778;SDS011;30234;48.090;11.464;2022-10-16T17:32:38;1.67;;;0.98;;
27778;SDS011;30234;48.090;11.464;2022-10-16T17:36:39;2.95;;;1.30;;
27778;SDS011;30234;48.090;11.464;2022-10-16T17:40:45;9.98;;;1.40;;
27778;SDS011;30234;48.090;11.464;2022-10-16T17:44:46;6.40;;;1.15;;
27778;SDS011;30234;48.090;11.464;2022-10-16T17:48:48;5.97;;;0.90;;
27778;SDS011;30234;48.090;11.464;2022-10-16T17:52:53;4.97;;;1.38;;
27778;SDS011;30234;48.090;11.464;2022-10-16T17:56:54;4.63;;;1.45;;
27778;SDS011;30234;48.090;11.464;2022-10-16T18:00:55;7.45;;;1.20;;
27778;SDS011;30234;48.090;11.464;2022-10-16T18:04:56;4.13;;;1.00;;
27778;SDS011;30234;48.090;11.464;2022-10-16T18:08:57;1.90;;;1.20;;
27778;SDS011;30234;48.090;11.464;2022-10-16T18:12:59;7.43;;;1.83;;
27778;SDS011;30234;48.090;11.464;2022-10-16T18:17:00;3.85;;;1.02;;
27778;SDS011;30234;48.090;11.464;2022-10-16T18:21:03;2.33;;;1.00;;
27778;SDS011;30234;48.090;11.464;2022-10-16T18:25:09;4.80;;;1.20;;
27778;SDS011;30234;48.090;11.464;2022-10-16T18:29:11;3.00;;;0.88;;
27778;SDS011;30234;48.090;11.464;2022-10-16T18:33:12;5.47;;;1.33;;
27778;SDS011;30234;48.090;11.464;2022-10-16T18:37:13;12.45;;;1.65;;
27778;SDS011;30234;48.090;11.464;2022-10-16T18:41:15;2.00;;;1.55;;
27778;SDS011;30234;48.090;11.464;2022-10-16T18:45:18;11.18;;;1.40;;
27778;SDS011;30234;48.090;11.464;2022-10-16T18:49:19;9.38;;;1.88;;
27778;SDS011;30234;48.090;11.464;2022-10-16T18:53:20;8.13;;;1.27;;
27778;SDS011;30234;48.090;11.464;2022-10-16T18:57:21;5.53;;;1.58;;
27778;SDS011;30234;48.090;11.464;2022-10-16T19:01:22;6.15;;;0.95;;
27778;SDS011;30234;48.090;11.464;2022-10-16T19:05:25;5.13;;;0.90;;
27778;SDS011;30234;48.090;11.464;2022-10-16T19:09:26;1.67;;;0.93;;
27778;SDS011;30234;48.090;11.464;2022-10-16T19:13:28;1.95;;;1.08;;
27778;SDS011;30234;48.090;11.464;2022-10-16T19:17:30;4.25;;;1.02;;
27778;SDS011;30234;48.090;11.464;2022-10-16T19:21:33;9.68;;;1.17;;
27778;SDS011;30234;48.090;11.464;2022-10-16T19:25:36;4.53;;;1.10;;
27778;SDS011;30234;48.090;11.464;2022-10-16T19:29:38;2.40;;;1.58;;
27778;SDS011;30234;48.090;11.464;2022-10-16T19:33:39;3.72;;;1.10;;
27778;SDS011;30234;48.090;11.464;2022-10-16T19:37:41;2.03;;;1.05;;
27778;SDS011;30234;48.090;11.464;2022-10-16T19:41:41;0.80;;;0.52;;
27778;SDS011;30234;48.090;11.464;2022-10-16T19:45:43;4.65;;;1.08;;
27778;SDS011;30234;48.090;11.464;2022-10-16T19:49:44;6.70;;;1.70;;
27778;SDS011;30234;48.090;11.464;2022-10-16T19:53:46;9.23;;;1.23;;
27778;SDS011;30234;48.090;11.464;2022-10-16T19:57:47;8.30;;;2.08;;
27778;SDS011;30234;48.090;11.464;2022-10-16T20:01:48;7.72;;;1.23;;
27778;SDS011;30234;48.090;11.464;2022-10-16T20:05:52;2.28;;;1.20;;
27778;SDS011;30234;48.090;11.464;2022-10-16T20:09:54;4.47;;;1.42;;
27778;SDS011;30234;48.090;11.464;2022-10-16T20:13:55;8.45;;;1.77;;
27778;SDS011;30234;48.090;11.464;2022-10-16T20:17:56;5.50;;;1.48;;
27778;SDS011;30234;48.090;11.464;2022-10-16T20:21:57;9.75;;;1.38;;
27778;SDS011;30234;48.090;11.464;2022-10-16T20:25:59;3.33;;;1.23;;
27778;SDS011;30234;48.090;11.464;2022-10-16T20:30:00;7.63;;;1.40;;
27778;SDS011;30234;48.090;11.464;2022-10-16T20:34:10;6.35;;;1.40;;
27778;SDS011;30234;48.090;11.464;2022-10-16T20:38:12;9.18;;;1.42;;
27778;SDS011;30234;48.090;11.464;2022-10-16T20:42:15;1.85;;;1.30;;
27778;SDS011;30234;48.090;11.464;2022-10-16T20:46:16;4.25;;;1.10;;
27778;SDS011;30234;48.090;11.464;2022-10-16T20:50:20;4.93;;;1.05;;
27778;SDS011;30234;48.090;11.464;2022-10-16T20:54:21;3.47;;;0.95;;
27778;SDS011;30234;48.090;11.464;2022-10-16T20:58:22;5.88;;;1.20;;
27778;SDS011;30234;48.090;11.464;2022-10-16T21:02:23;2.75;;;1.80;;
27778;SDS011;30234;48.090;11.464;2022-10-16T21:06:24;3.85;;;0.95;;
27778;SDS011;30234;48.090;11.464;2022-10-16T21:10:25;5.93;;;1.83;;
27778;SDS011;30234;48.090;11.464;2022-10-16T21:14:28;4.60;;;1.77;;
27778;SDS011;30234;48.090;11.464;2022-10-16T21:18:29;5.85;;;1.13;;
27778;SDS011;30234;48.090;11.464;2022-10-16T21:22:30;3.90;;;0.88;;
27778;SDS011;30234;48.090;11.464;2022-10-16T21:26:31;5.97;;;1.38;;
27778;SDS011;30234;48.090;11.464;2022-10-16T21:30:32;5.60;;;1.15;;
27778;SDS011;30234;48.090;11.464;2022-10-16T21:34:33;3.42;;;0.95;;
27778;SDS011;30234;48.090;11.464;2022-10-16T21:38:34;2.30;;;1.00;;
27778;SDS011;30234;48.090;11.464;2022-10-16T21:42:35;8.80;;;1.17;;
27778;SDS011;30234;48.090;11.464;2022-10-16T21:46:37;4.53;;;1.27;;
27778;SDS011;30234;48.090;11.464;2022-10-16T21:50:45;8.60;;;2.15;;
27778;SDS011;30234;48.090;11.464;2022-10-16T21:54:47;2.78;;;1.33;;
27778;SDS011;30234;48.090;11.464;2022-10-16T21:58:48;11.73;;;1.70;;
27778;SDS011;30234;48.090;11.464;2022-10-16T22:02:48;2.65;;;1.58;;
27778;SDS011;30234;48.090;11.464;2022-10-16T22:06:49;4.88;;;1.10;;
27778;SDS011;30234;48.090;11.464;2022-10-16T22:10:50;2.20;;;1.38;;
27778;SDS011;30234;48.090;11.464;2022-10-16T22:14:51;3.55;;;1.30;;
27778;SDS011;30234;48.090;11.464;2022-10-16T22:18:55;3.08;;;1.77;;
27778;SDS011;30234;48.090;11.464;2022-10-16T22:22:57;6.95;;;2.13;;
27778;SDS011;30234;48.090;11.464;2022-10-16T22:26:58;7.93;;;1.90;;
27778;SDS011;30234;48.090;11.464;2022-10-16T22:31:06;8.60;;;2.05;;
27778;SDS011;30234;48.090;11.464;2022-10-16T22:35:10;4.05;;;1.90;;
27778;SDS011;30234;48.090;11.464;2022-10-16T22:39:11;5.18;;;1.63;;
27778;SDS011;30234;48.090;11.464;2022-10-16T22:43:12;3.58;;;1.98;;
27778;SDS011;30234;48.090;11.464;2022-10-16T22:47:14;3.63;;;1.80;;
27778;SDS011;30234;48.090;11.464;2022-10-16T22:51:16;2.20;;;1.63;;
27778;SDS011;30234;48.090;11.464;2022-10-16T22:55:18;6.78;;;1.45;;
27778;SDS011;30234;48.090;11.464;2022-10-16T22:59:19;1.67;;;1.20;;
27778;SDS011;30234;48.090;11.464;2022-10-16T23:03:20;13.60;;;1.90;;
27778;SDS011;30234;48.090;11.464;2022-10-16T23:07:21;1.80;;;1.70;;
27778;SDS011;30234;48.090;11.464;2022-10-16T23:11:22;3.28;;;1.38;;
27778;SDS011;30234;48.090;11.464;2022-10-16T23:15:23;3.45;;;1.90;;
27778;SDS011;30234;48.090;11.464;2022-10-16T23:19:24;2.28;;;1.48;;
27778;SDS011;30234;48.090;11.464;2022-10-16T23:23:25;3.83;;;1.13;;
27778;SDS011;30234;48.090;11.464;2022-10-16T23:27:26;1.80;;;1.13;;
27778;SDS011;30234;48.090;11.464;2022-10-16T23:31:27;1.42;;;1.17;;
27778;SDS011;30234;48.090;11.464;2022-10-16T23:35:31;4.43;;;1.23;;
27778;SDS011;30234;48.090;11.464;2022-10-16T23:39:32;6.22;;;1.17;;
27778;SDS011;30234;48.090;11.464;2022-10-16T23:43:32;7.47;;;1.30;;
27778;SDS011;30234;48.090;11.464;2022-10-16T23:47:34;1.35;;;1.10;;
27778;SDS011;30234;48.090;11.464;2022-10-16T23:51:34;9.43;;;1.58;;
27778;SDS011;30234;48.090;11.464;2022-10-16T23:55:35;5.95;;;1.00;;
27778;SDS011;30234;48.090;11.464;2022-10-16T23:59:36;5.07;;;0.95;;
